| Date | Time | Temp. (oF) | Dew Point (oF) | Rel. Hum. (%) | Press. (in.) | Wind Dir. (deg.) | Wind Speed (mph) | Hourly Rainfall (i n.) |
|
|---|---|---|---|---|---|---|---|---|---|
| 1 | 05/01 | 24:00 | 51 | 35 | 56 | 30.40 | 130 | 0 | 0.00 |
| 2 | 04/30 | 23:00 | 53 | 36 | 53 | 30.43 | 150 | 4 | 0.00 |
| 3 | 04/30 | 22:00 | 55 | 35 | 48 | 30.42 | 100 | 4 | 0.00 |
| 4 | 04/30 | 21:00 | 58 | 33 | 40 | 30.41 | 130 | 0 | 0.00 |
| 5 | 04/30 | 20:00 | 62 | 33 | 34 | 30.42 | 130 | 0 | 0.00 |
| 6 | 04/30 | 19:00 | 66 | 33 | 30 | 30.43 | 130 | 0 | 0.00 |
| 7 | 04/30 | 18:00 | 69 | 33 | 27 | 30.41 | 120 | 2 | 0.00 |
| 8 | 04/30 | 17:00 | 71 | 37 | 30 | 30.37 | 130 | 2 | 0.00 |
| 9 | 04/30 | 16:00 | 71 | 37 | 30 | 30.36 | 10 | 4 | 0.00 |
| 10 | 04/30 | 15:00 | 72 | 38 | 30 | 30.39 | 50 | 2 | 0.00 |
| 11 | 04/30 | 14:00 | 73 | 39 | 30 | 30.39 | 170 | 10 | 0.00 |
| 12 | 04/30 | 13:00 | 72 | 38 | 30 | 30.38 | 60 | 1 | 0.00 |
| 13 | 04/30 | 12:00 | 71 | 39 | 32 | 30.39 | 100 | 4 | 0.00 |
| 14 | 04/30 | 11:00 | 66 | 39 | 38 | 30.42 | 80 | 2 | 0.00 |
| 15 | 04/30 | 10:00 | 52 | 34 | 52 | 30.40 | 10 | 1 | 0.00 |
| 16 | 04/30 | 09:00 | 47 | 33 | 60 | 30.42 | 20 | 0 | 0.00 |
| 17 | 04/30 | 08:00 | 43 | 36 | 77 | 30.43 | 110 | 0 | 0.00 |
| 18 | 04/30 | 07:00 | 40 | 32 | 74 | 30.42 | 110 | 1 | 0.00 |
| 19 | 04/30 | 06:00 | 41 | 31 | 69 | 30.40 | 110 | 1 | 0.00 |
| 20 | 04/30 | 05:00 | 42 | 31 | 65 | 30.41 | 110 | 0 | 0.00 |
| 21 | 04/30 | 04:00 | 44 | 31 | 62 | 30.40 | 110 | 0 | 0.00 |
| 22 | 04/30 | 03:00 | 45 | 30 | 57 | 30.41 | 110 | 1 | 0.00 |
| 23 | 04/30 | 02:00 | 48 | 31 | 53 | 30.39 | 110 | 0 | 0.00 |
| 24 | 04/30 | 01:00 | 49 | 30 | 48 | 30.38 | 110 | 0 | 0.00 |